Airport Name : Campo Grande

Other Name : Campo Grande

ICAO : SBCG

IATA : CGR

FAA :

Latitude : -20.468667

Longitude : -54.6725

Country : Brazil

Local Date and Time : 08 Mar 2021 05:35

 

TAF (Terminal Aerodrome Forecast)

 

METAR (METeorological Aerodrome Report)

SBCG 080900Z 33004KT 9999 FEW045 21/19 Q1012

SBCG 080800Z 34004KT 9999 FEW045 21/19 Q1012

SBCG 080700Z 35003KT 9999 FEW045 SCT100 22/20 Q1012

SBCG 080600Z 32003KT 9999 FEW045 SCT070 22/20 Q1012

To Charter a Jet Click here.